Time;durP1;ratioP1;P1;durP2;ratioP2;P2;SDS_P1;SDS_P2;PMS_P1;PMS_P2;Temp;Humidity;BMP_temperature;BMP_pressure;BME280_temperature;BME280_humidity;BME280_pressure;Samples;Min_cycle;Max_cycle;Signal;HPM_P1;HPM_P2
2022/12/22 03:28:01;;;;;;;;;;;10.30;99.90;;;;;;5011887;28;20013;-80
2022/12/22 03:30:28;;;;;;;;;;;10.30;99.90;;;;;;4970989;28;20033;-81
2022/12/22 03:32:56;;;;;;;;;;;10.30;99.90;;;;;;4966883;28;19931;-80
2022/12/22 03:35:23;;;;;;;;;;;10.30;99.90;;;;;;4968830;28;19926;-81
2022/12/22 03:37:49;;;;;;;;;;;9.70;99.90;;;;;;4969065;28;20338;-80
2022/12/22 03:40:16;;;;;;;;;;;10.40;99.90;;;;;;4962251;28;19933;-81
2022/12/22 03:48:15;;;;;;;;;;;10.40;99.90;;;;;;4974681;28;19922;-81
2022/12/22 03:50:43;;;;;;;;;;;10.40;99.90;;;;;;4980338;28;20053;-81
2022/12/22 03:53:09;;;;;;;;;;;10.40;99.90;;;;;;4974233;28;20315;-81
2022/12/22 03:55:36;;;;;;;;;;;10.40;99.90;;;;;;4985954;28;19970;-81
2022/12/22 03:58:03;;;;;;;;;;;10.40;99.90;;;;;;4972716;28;19957;-81
2022/12/22 04:00:30;;;;;;;;;;;10.40;99.90;;;;;;4977801;28;19968;-81
2022/12/22 04:02:57;;;;;;;;;;;10.40;99.90;;;;;;4988109;28;19930;-81
2022/12/22 04:05:25;;;;;;;;;;;10.40;99.90;;;;;;4975521;28;19977;-81
2022/12/22 04:07:52;;;;;;;;;;;10.50;99.90;;;;;;4975375;28;19930;-81
2022/12/22 04:13:03;;;;;;;;;;;10.50;99.90;;;;;;4968853;28;19922;-81
2022/12/22 04:15:31;;;;;;;;;;;10.50;99.90;;;;;;4972971;28;19937;-80
2022/12/22 04:17:58;;;;;;;;;;;10.50;99.90;;;;;;4973196;28;20496;-80
2022/12/22 04:20:27;;;;;;;;;;;10.50;99.90;;;;;;4977621;28;19945;-80
2022/12/22 04:22:53;;;;;;;;;;;10.50;99.90;;;;;;4973916;28;19926;-80
2022/12/22 04:25:20;;;;;;;;;;;10.50;99.90;;;;;;4989322;28;19934;-80
2022/12/22 04:27:47;;;;;;;;;;;10.50;99.90;;;;;;4978031;28;20021;-80
2022/12/22 04:30:14;;;;;;;;;;;10.50;99.90;;;;;;4976734;28;19936;-80
2022/12/22 04:32:41;;;;;;;;;;;10.50;99.90;;;;;;4984452;28;19949;-79
2022/12/22 04:35:08;;;;;;;;;;;10.50;99.90;;;;;;4990881;28;19926;-80
2022/12/22 04:37:37;;;;;;;;;;;10.60;99.90;;;;;;4979166;28;19953;-80
2022/12/22 04:40:04;;;;;;;;;;;10.50;99.90;;;;;;4974214;28;19957;-81
2022/12/22 04:42:31;;;;;;;;;;;10.60;99.90;;;;;;4981159;28;19945;-82
2022/12/22 04:44:57;;;;;;;;;;;10.60;99.90;;;;;;4987973;28;19926;-82
2022/12/22 04:47:24;;;;;;;;;;;10.60;99.90;;;;;;4987595;28;20024;-82
2022/12/22 04:49:51;;;;;;;;;;;10.60;99.90;;;;;;4972473;28;19934;-81
2022/12/22 04:52:18;;;;;;;;;;;10.60;99.90;;;;;;5004366;28;20143;-81
2022/12/22 04:54:46;;;;;;;;;;;10.60;99.90;;;;;;4969270;28;19935;-81
2022/12/22 04:57:12;;;;;;;;;;;10.60;99.90;;;;;;4974931;28;19926;-81
2022/12/22 04:59:39;;;;;;;;;;;10.60;99.90;;;;;;4975369;28;19920;-81
2022/12/22 05:02:06;;;;;;;;;;;10.60;99.90;;;;;;4982142;28;19926;-81
2022/12/22 05:07:20;;;;;;;;;;;10.60;99.90;;;;;;5129815;22;19929;-74
2022/12/22 05:09:48;;;;;;;;;;;11.50;99.90;;;;;;5026439;28;19987;-75
2022/12/22 05:14:59;;;;;;;;;;;10.60;99.90;;;;;;5030941;28;20743;-74
2022/12/22 05:17:26;;;;;;;;;;;10.60;99.90;;;;;;5040612;28;19928;-73
2022/12/22 05:19:53;;;;;;;;;;;10.70;99.90;;;;;;5035658;28;20474;-75
2022/12/22 05:22:20;;;;;;;;;;;10.70;99.90;;;;;;5018020;28;19929;-73
2022/12/22 05:24:48;;;;;;;;;;;10.70;99.90;;;;;;5028551;28;19925;-74
2022/12/22 05:27:14;;;;;;;;;;;11.10;99.90;;;;;;5050479;28;20019;-73
2022/12/22 05:29:41;;;;;;;;;;;10.60;99.90;;;;;;5048831;28;20020;-75
2022/12/22 05:32:08;;;;;;;;;;;10.70;99.90;;;;;;5049389;28;19943;-74
2022/12/22 05:34:35;;;;;;;;;;;10.70;99.90;;;;;;5049431;28;19925;-73
2022/12/22 05:37:01;;;;;;;;;;;10.70;99.90;;;;;;5040088;28;19928;-74
2022/12/22 05:39:28;;;;;;;;;;;10.70;99.90;;;;;;5035626;28;19939;-75
2022/12/22 05:41:56;;;;;;;;;;;10.70;99.90;;;;;;5042588;28;19968;-75
2022/12/22 05:44:23;;;;;;;;;;;10.60;99.90;;;;;;5043786;28;20013;-74
2022/12/22 05:46:50;;;;;;;;;;;10.60;99.90;;;;;;5043860;28;19925;-75
2022/12/22 05:49:17;;;;;;;;;;;10.50;99.90;;;;;;5029742;28;20298;-73
2022/12/22 05:51:44;;;;;;;;;;;10.50;99.90;;;;;;5048442;28;20044;-74
2022/12/22 05:54:11;;;;;;;;;;;10.50;99.90;;;;;;5037503;28;19936;-74
2022/12/22 05:56:38;;;;;;;;;;;10.50;99.90;;;;;;5041153;28;19939;-74
2022/12/22 05:59:06;;;;;;;;;;;10.50;99.90;;;;;;5052137;28;20022;-73
2022/12/22 06:01:32;;;;;;;;;;;10.50;99.90;;;;;;5041441;28;19933;-73
2022/12/22 06:03:59;;;;;;;;;;;10.60;99.90;;;;;;5020324;28;19936;-74
2022/12/22 06:06:26;;;;;;;;;;;10.60;99.90;;;;;;5033706;28;19932;-73
2022/12/22 06:08:52;;;;;;;;;;;10.60;99.90;;;;;;5032388;28;19929;-73
2022/12/22 06:11:19;;;;;;;;;;;10.60;99.90;;;;;;5040032;28;19932;-73
2022/12/22 06:13:46;;;;;;;;;;;;;;;;;;5035146;28;19936;-74
2022/12/22 06:16:16;;;;;;;;;;;10.60;99.90;;;;;;5006068;28;19948;-75
2022/12/22 06:18:42;;;;;;;;;;;10.60;99.90;;;;;;5015565;28;19933;-76
2022/12/22 06:21:09;;;;;;;;;;;10.60;99.90;;;;;;5035571;28;19951;-73
2022/12/22 06:23:36;;;;;;;;;;;10.50;99.90;;;;;;5037389;28;19947;-74
2022/12/22 06:26:03;;;;;;;;;;;10.50;99.90;;;;;;5027333;28;19991;-74
2022/12/22 06:28:30;;;;;;;;;;;10.50;99.90;;;;;;5027742;28;19952;-74
2022/12/22 06:30:56;;;;;;;;;;;10.60;99.90;;;;;;5030324;28;20248;-73
2022/12/22 06:33:25;;;;;;;;;;;10.60;99.90;;;;;;5035791;28;19928;-73
2022/12/22 06:35:52;;;;;;;;;;;10.60;99.90;;;;;;5020344;28;19925;-73
2022/12/22 06:38:18;;;;;;;;;;;10.60;99.90;;;;;;5043587;28;19924;-75
2022/12/22 06:40:46;;;;;;;;;;;10.60;99.90;;;;;;5045611;28;19983;-73
2022/12/22 06:43:12;;;;;;;;;;;10.60;99.90;;;;;;5047808;28;19929;-73
2022/12/22 06:45:40;;;;;;;;;;;10.60;99.90;;;;;;5037003;28;20313;-73
2022/12/22 06:48:07;;;;;;;;;;;10.70;99.90;;;;;;5040965;28;19924;-74
2022/12/22 06:50:35;;;;;;;;;;;10.70;99.90;;;;;;5046002;28;19928;-73
2022/12/22 06:53:02;;;;;;;;;;;10.60;99.90;;;;;;5044828;28;19935;-72
2022/12/22 06:55:30;;;;;;;;;;;10.70;99.90;;;;;;5033475;28;20026;-73
2022/12/22 06:57:57;;;;;;;;;;;10.80;99.90;;;;;;5033131;28;19986;-72
2022/12/22 07:00:23;;;;;;;;;;;10.80;99.90;;;;;;5046513;28;19929;-73
2022/12/22 07:02:50;;;;;;;;;;;10.80;99.90;;;;;;5038758;28;19931;-72
2022/12/22 07:05:17;;;;;;;;;;;10.80;99.90;;;;;;5044212;28;19931;-73
2022/12/22 07:07:45;;;;;;;;;;;10.80;99.90;;;;;;5019932;28;19929;-72
2022/12/22 07:10:12;;;;;;;;;;;10.80;99.90;;;;;;5049313;28;19929;-72
2022/12/22 07:12:39;;;;;;;;;;;10.80;99.90;;;;;;5049212;28;19932;-73
2022/12/22 07:15:06;;;;;;;;;;;10.80;99.90;;;;;;5042681;28;20444;-72
2022/12/22 07:17:33;;;;;;;;;;;10.80;99.90;;;;;;5042799;28;20027;-73
2022/12/22 07:19:59;;;;;;;;;;;10.80;99.90;;;;;;5026759;28;19933;-72
2022/12/22 07:22:26;;;;;;;;;;;10.80;99.90;;;;;;5038494;28;19930;-72
2022/12/22 07:24:54;;;;;;;;;;;10.70;99.90;;;;;;5525597;22;19912;-73
2022/12/22 07:27:21;;;;;;;;;;;10.70;99.90;;;;;;5045795;28;19948;-74
2022/12/22 07:29:48;;;;;;;;;;;10.70;99.90;;;;;;5050956;28;20297;-72
2022/12/22 07:32:15;;;;;;;;;;;10.70;99.90;;;;;;5058080;28;20484;-71
2022/12/22 07:34:41;;;;;;;;;;;10.60;99.90;;;;;;5051386;28;20238;-72
2022/12/22 07:37:08;;;;;;;;;;;12.10;99.90;;;;;;5028293;28;20362;-73
2022/12/22 07:39:35;;;;;;;;;;;10.70;99.90;;;;;;5063599;22;19956;-75
2022/12/22 07:44:44;;;;;;;;;;;10.60;99.90;;;;;;5021231;28;20288;-77
2022/12/22 07:47:10;;;;;;;;;;;10.60;99.90;;;;;;5045290;28;19929;-77
2022/12/22 07:52:21;;;;;;;;;;;10.60;99.90;;;;;;5017071;28;19925;-77
2022/12/22 07:54:48;;;;;;;;;;;10.60;99.90;;;;;;5015188;28;19933;-77
2022/12/22 07:57:16;;;;;;;;;;;10.60;99.90;;;;;;5015952;28;19944;-77
2022/12/22 07:59:43;;;;;;;;;;;10.60;99.90;;;;;;4997163;28;20757;-77
2022/12/22 08:02:10;;;;;;;;;;;10.70;99.90;;;;;;5013525;28;19933;-77
2022/12/22 08:04:37;;;;;;;;;;;10.70;99.90;;;;;;5014703;28;19959;-77
2022/12/22 08:07:04;;;;;;;;;;;10.60;99.90;;;;;;4998609;28;19941;-77
2022/12/22 08:09:30;;;;;;;;;;;10.60;99.90;;;;;;4997440;28;19939;-77
2022/12/22 08:11:57;;;;;;;;;;;10.60;99.90;;;;;;5009311;28;19948;-77
2022/12/22 08:14:25;;;;;;;;;;;10.20;99.90;;;;;;5009760;28;20002;-77
2022/12/22 08:16:52;;;;;;;;;;;10.60;99.90;;;;;;5008672;28;19933;-77
2022/12/22 08:19:19;;;;;;;;;;;10.60;99.90;;;;;;4986118;28;19933;-77
2022/12/22 08:21:47;;;;;;;;;;;10.60;99.90;;;;;;5010669;28;19933;-77
2022/12/22 08:24:14;;;;;;;;;;;10.60;99.90;;;;;;4992759;28;20102;-77
2022/12/22 08:26:42;;;;;;;;;;;10.60;99.90;;;;;;4990347;28;19933;-77
2022/12/22 08:29:11;;;;;;;;;;;10.10;99.90;;;;;;5014041;28;19975;-77
2022/12/22 08:31:40;;;;;;;;;;;10.70;99.90;;;;;;5015906;28;19933;-77
2022/12/22 08:34:08;;;;;;;;;;;10.70;99.90;;;;;;5036698;28;19928;-77
2022/12/22 08:36:36;;;;;;;;;;;10.70;99.90;;;;;;5039897;28;19948;-77
2022/12/22 08:39:04;;;;;;;;;;;10.70;99.90;;;;;;5027290;28;19948;-77
2022/12/22 08:44:14;;;;;;;;;;;10.70;99.90;;;;;;5029068;28;20004;-77
2022/12/22 08:46:43;;;;;;;;;;;10.70;99.90;;;;;;5040508;28;19929;-77
2022/12/22 08:49:09;;;;;;;;;;;10.80;99.90;;;;;;5004123;28;19933;-77
2022/12/22 08:51:36;;;;;;;;;;;10.80;99.90;;;;;;5026984;28;20592;-77
2022/12/22 08:54:03;;;;;;;;;;;10.80;99.90;;;;;;5014293;28;19936;-77
2022/12/22 08:56:34;;;;;;;;;;;10.80;99.90;;;;;;5039031;28;19924;-77
2022/12/22 08:59:03;;;;;;;;;;;11.30;99.90;;;;;;5023536;28;19933;-77
2022/12/22 09:01:31;;;;;;;;;;;10.80;99.90;;;;;;5000679;28;19939;-76
2022/12/22 09:03:59;;;;;;;;;;;10.90;99.90;;;;;;5033184;28;19933;-77
2022/12/22 09:06:26;;;;;;;;;;;10.90;99.90;;;;;;5010655;28;19929;-77
2022/12/22 09:08:53;;;;;;;;;;;11.00;99.90;;;;;;5028487;28;20318;-77
2022/12/22 09:11:20;;;;;;;;;;;11.00;99.90;;;;;;5044833;28;20334;-77
2022/12/22 09:13:47;;;;;;;;;;;11.50;99.90;;;;;;5049588;28;19936;-77
2022/12/22 09:16:13;;;;;;;;;;;11.40;99.90;;;;;;5014798;28;19929;-77
2022/12/22 09:18:40;;;;;;;;;;;11.20;99.90;;;;;;5044799;28;20240;-77
2022/12/22 09:21:08;;;;;;;;;;;12.70;99.90;;;;;;5016591;28;19968;-76
2022/12/22 09:23:35;;;;;;;;;;;11.30;99.90;;;;;;5012070;28;19929;-77
2022/12/22 09:26:06;;;;;;;;;;;11.40;99.90;;;;;;5019759;28;19929;-77
2022/12/22 09:28:33;;;;;;;;;;;11.40;99.90;;;;;;5022327;28;19929;-77
2022/12/22 09:30:59;;;;;;;;;;;11.40;99.90;;;;;;5021039;28;20404;-76
2022/12/22 09:33:26;;;;;;;;;;;11.40;99.90;;;;;;5016574;28;19988;-76
2022/12/22 09:35:53;;;;;;;;;;;11.40;99.90;;;;;;5021650;28;19929;-77
2022/12/22 09:38:22;;;;;;;;;;;11.40;99.90;;;;;;5004851;28;19937;-76
2022/12/22 09:40:48;;;;;;;;;;;12.70;99.90;;;;;;5025393;28;19948;-76
2022/12/22 09:43:18;;;;;;;;;;;11.30;99.90;;;;;;5020253;28;19925;-76
2022/12/22 09:45:45;;;;;;;;;;;11.20;99.90;;;;;;5030301;28;19929;-77
2022/12/22 09:48:13;;;;;;;;;;;11.20;99.90;;;;;;5017734;28;20449;-76
2022/12/22 09:50:41;;;;;;;;;;;11.10;99.90;;;;;;5010708;28;20042;-76
2022/12/22 09:53:14;;;;;;;;;;;11.00;99.90;;;;;;5014695;28;20350;-76
2022/12/22 09:55:44;;;;;;;;;;;11.00;99.90;;;;;;5022870;28;19936;-76
2022/12/22 09:58:16;;;;;;;;;;;11.00;99.90;;;;;;5007570;28;19933;-76
2022/12/22 10:00:43;;;;;;;;;;;11.10;99.90;;;;;;5047545;28;19932;-76
2022/12/22 10:03:14;;;;;;;;;;;11.10;99.90;;;;;;5026814;28;19947;-76
2022/12/22 10:05:44;;;;;;;;;;;11.10;99.90;;;;;;5017098;28;19941;-76
2022/12/22 10:08:12;;;;;;;;;;;11.10;99.90;;;;;;5003559;28;19935;-76
2022/12/22 10:10:38;;;;;;;;;;;11.10;99.90;;;;;;5031306;28;19929;-75
2022/12/22 10:13:07;;;;;;;;;;;11.00;99.90;;;;;;5017227;28;19929;-76
2022/12/22 10:15:35;;;;;;;;;;;11.00;99.90;;;;;;5025783;28;19940;-76
2022/12/22 10:18:08;;;;;;;;;;;11.00;99.90;;;;;;5035337;28;19931;-76
2022/12/22 10:20:37;;;;;;;;;;;11.00;99.90;;;;;;5032216;28;19929;-75
2022/12/22 10:23:13;;;;;;;;;;;11.00;99.90;;;;;;5016552;28;19924;-76
2022/12/22 10:25:42;;;;;;;;;;;10.90;99.90;;;;;;5036716;28;19925;-76
2022/12/22 10:28:12;;;;;;;;;;;11.00;99.90;;;;;;5026122;28;20656;-76
2022/12/22 10:30:40;;;;;;;;;;;10.90;99.90;;;;;;5028062;28;19935;-76
2022/12/22 10:33:08;;;;;;;;;;;11.00;99.90;;;;;;5031315;28;19933;-76
2022/12/22 10:35:43;;;;;;;;;;;11.00;99.90;;;;;;5014879;28;19967;-75
2022/12/22 10:38:14;;;;;;;;;;;11.10;99.90;;;;;;5040434;28;19944;-75
2022/12/22 10:40:42;;;;;;;;;;;11.10;99.90;;;;;;5009330;28;20384;-75
2022/12/22 10:43:17;;;;;;;;;;;11.20;99.90;;;;;;5019084;28;20011;-75
2022/12/22 10:45:47;;;;;;;;;;;11.30;99.90;;;;;;4999443;28;19929;-75
2022/12/22 10:48:13;;;;;;;;;;;11.20;99.90;;;;;;5018644;28;19929;-75
2022/12/22 10:50:44;;;;;;;;;;;11.10;99.90;;;;;;4997040;28;19937;-76
2022/12/22 10:53:11;;;;;;;;;;;11.00;99.90;;;;;;4997759;28;20172;-75
2022/12/22 10:55:38;;;;;;;;;;;10.90;99.90;;;;;;5020986;28;20082;-75
2022/12/22 10:58:14;;;;;;;;;;;10.80;99.90;;;;;;4998609;28;19929;-76
2022/12/22 11:00:43;;;;;;;;;;;11.90;99.90;;;;;;5003303;28;19925;-76
2022/12/22 11:03:13;;;;;;;;;;;10.70;99.90;;;;;;5012647;28;20001;-76
2022/12/22 11:05:40;;;;;;;;;;;10.60;99.90;;;;;;5018313;28;19933;-76
2022/12/22 11:08:14;;;;;;;;;;;11.70;99.90;;;;;;5015969;28;20359;-76
2022/12/22 11:10:43;;;;;;;;;;;10.70;99.90;;;;;;5033341;28;19928;-76
2022/12/22 11:13:19;;;;;;;;;;;11.50;99.90;;;;;;5008602;28;20067;-76
2022/12/22 11:15:49;;;;;;;;;;;10.80;99.90;;;;;;5012449;28;20312;-76
2022/12/22 11:18:24;;;;;;;;;;;10.80;99.90;;;;;;5010124;28;19964;-76
2022/12/22 11:20:54;;;;;;;;;;;10.80;99.90;;;;;;5043867;28;20230;-76
2022/12/22 11:23:26;;;;;;;;;;;10.80;99.90;;;;;;5037782;28;20365;-76
2022/12/22 11:25:59;;;;;;;;;;;11.10;99.90;;;;;;5037729;28;19932;-76
2022/12/22 11:28:32;;;;;;;;;;;11.50;99.90;;;;;;5023940;28;19970;-76
2022/12/22 11:31:06;;;;;;;;;;;11.20;99.90;;;;;;5041506;28;19982;-76
2022/12/22 11:33:38;;;;;;;;;;;11.60;99.90;;;;;;5026280;28;19924;-76
2022/12/22 11:36:08;;;;;;;;;;;11.20;99.90;;;;;;5022986;28;20281;-76
2022/12/22 11:38:44;;;;;;;;;;;11.10;99.90;;;;;;5025767;28;19935;-76
2022/12/22 11:41:18;;;;;;;;;;;10.50;99.90;;;;;;5013646;28;20004;-76
2022/12/22 11:43:54;;;;;;;;;;;12.10;99.90;;;;;;5031345;28;20167;-76
2022/12/22 11:46:27;;;;;;;;;;;10.80;99.90;;;;;;5004346;28;19933;-75
2022/12/22 11:49:05;;;;;;;;;;;10.70;99.90;;;;;;5028457;28;20322;-75
2022/12/22 11:51:39;;;;;;;;;;;10.70;99.90;;;;;;5009324;28;20224;-75
2022/12/22 11:54:30;;;;;;;;;;;10.80;99.90;;;;;;5009279;28;20741;-75
2022/12/22 11:56:59;;;;;;;;;;;11.00;99.90;;;;;;5012742;28;19929;-76
2022/12/22 11:59:35;;;;;;;;;;;11.30;99.90;;;;;;5010331;28;19925;-75
2022/12/22 12:02:09;;;;;;;;;;;11.40;99.90;;;;;;5022981;28;19932;-76
2022/12/22 12:04:47;;;;;;;;;;;11.50;99.90;;;;;;5019278;28;19929;-75
2022/12/22 12:07:21;;;;;;;;;;;12.60;99.90;;;;;;5025347;28;19925;-76
2022/12/22 12:09:51;;;;;;;;;;;11.70;99.90;;;;;;5034612;28;20421;-75
2022/12/22 12:12:23;;;;;;;;;;;11.70;99.90;;;;;;5011751;28;19951;-75
2022/12/22 12:14:54;;;;;;;;;;;11.90;99.90;;;;;;5030261;28;19952;-76
2022/12/22 12:17:27;;;;;;;;;;;11.60;99.90;;;;;;5015475;28;19976;-75
2022/12/22 12:20:04;;;;;;;;;;;11.70;99.90;;;;;;5024708;28;19941;-75
2022/12/22 12:22:38;;;;;;;;;;;11.80;99.90;;;;;;5000775;28;19933;-75
2022/12/22 12:25:16;;;;;;;;;;;12.60;99.90;;;;;;5020522;28;19948;-75
2022/12/22 12:27:54;;;;;;;;;;;12.00;99.90;;;;;;5000340;28;21050;-75
2022/12/22 12:30:21;;;;;;;;;;;12.00;99.90;;;;;;5017470;28;20395;-75
2022/12/22 12:32:53;;;;;;;;;;;12.10;99.90;;;;;;5021893;28;19960;-76
2022/12/22 12:35:35;;;;;;;;;;;12.00;99.90;;;;;;5025600;28;19933;-75
2022/12/22 12:38:05;;;;;;;;;;;12.10;99.90;;;;;;5041538;28;20023;-75
2022/12/22 12:40:35;;;;;;;;;;;12.00;99.90;;;;;;5013433;28;19933;-75
2022/12/22 12:43:02;;;;;;;;;;;12.50;99.90;;;;;;5036329;28;20314;-75
2022/12/22 12:45:32;;;;;;;;;;;11.70;99.90;;;;;;5024281;28;19933;-75
2022/12/22 12:48:14;;;;;;;;;;;11.80;99.90;;;;;;5001152;28;19934;-75
2022/12/22 12:50:42;;;;;;;;;;;12.30;99.90;;;;;;5019283;28;19936;-75
2022/12/22 12:53:09;;;;;;;;;;;11.50;99.90;;;;;;5021698;28;19933;-75
2022/12/22 12:55:51;;;;;;;;;;;11.40;99.90;;;;;;5030082;28;20421;-75
2022/12/22 12:58:33;;;;;;;;;;;11.40;99.90;;;;;;5003073;28;20339;-75
2022/12/22 13:01:00;;;;;;;;;;;11.60;99.90;;;;;;5003558;28;20032;-76
2022/12/22 13:03:37;;;;;;;;;;;12.40;99.90;;;;;;5027029;28;19931;-76
2022/12/22 13:06:06;;;;;;;;;;;11.80;99.90;;;;;;5020472;28;19952;-76
2022/12/22 13:08:33;;;;;;;;;;;12.00;99.90;;;;;;5051006;28;19924;-76
2022/12/22 13:11:21;;;;;;;;;;;12.10;99.90;;;;;;5043498;28;20023;-76
2022/12/22 13:13:48;;;;;;;;;;;12.20;99.90;;;;;;5014617;28;19937;-77
2022/12/22 13:16:26;;;;;;;;;;;12.30;99.90;;;;;;5027373;28;20370;-77
2022/12/22 13:18:57;;;;;;;;;;;12.50;99.90;;;;;;5008568;28;19968;-76
2022/12/22 13:21:27;;;;;;;;;;;12.50;99.90;;;;;;5025669;28;20228;-77
2022/12/22 13:23:57;;;;;;;;;;;12.70;99.90;;;;;;5022611;28;19981;-76
2022/12/22 13:26:26;;;;;;;;;;;12.90;99.90;;;;;;5001882;28;19933;-77
2022/12/22 13:28:54;;;;;;;;;;;13.00;99.90;;;;;;5013202;28;19964;-76
2022/12/22 13:31:24;;;;;;;;;;;13.20;99.90;;;;;;4998356;28;20390;-76
2022/12/22 13:33:58;;;;;;;;;;;13.30;99.90;;;;;;5013693;28;20248;-76
2022/12/22 13:36:27;;;;;;;;;;;13.60;99.90;;;;;;5021137;28;19948;-76
2022/12/22 13:38:59;;;;;;;;;;;13.60;99.90;;;;;;5017351;28;20003;-76
2022/12/22 13:41:26;;;;;;;;;;;13.60;99.90;;;;;;5019888;28;19934;-76
2022/12/22 13:43:54;;;;;;;;;;;13.60;99.90;;;;;;4996863;28;19933;-77
2022/12/22 13:46:20;;;;;;;;;;;13.40;99.90;;;;;;5007777;28;19940;-77
2022/12/22 13:48:48;;;;;;;;;;;13.00;99.90;;;;;;4985955;28;19929;-77
2022/12/22 13:51:18;;;;;;;;;;;13.00;99.90;;;;;;5009607;28;19929;-76
2022/12/22 13:53:48;;;;;;;;;;;12.80;99.90;;;;;;5012349;28;19940;-77
2022/12/22 13:56:16;;;;;;;;;;;12.50;99.90;;;;;;4994455;28;19932;-77
2022/12/22 13:58:44;;;;;;;;;;;12.30;99.90;;;;;;5013297;28;19933;-77
2022/12/22 14:01:16;;;;;;;;;;;12.10;99.90;;;;;;4998019;28;19936;-77
2022/12/22 14:03:47;;;;;;;;;;;12.10;99.90;;;;;;4998749;28;20339;-76
2022/12/22 14:06:21;;;;;;;;;;;12.00;99.90;;;;;;5011095;28;19948;-76
2022/12/22 14:08:49;;;;;;;;;;;11.90;99.90;;;;;;5005740;28;19940;-76
2022/12/22 14:11:16;;;;;;;;;;;11.90;99.90;;;;;;5005227;28;20299;-76
2022/12/22 14:13:43;;;;;;;;;;;11.80;99.90;;;;;;4992187;28;19955;-76
2022/12/22 14:16:12;;;;;;;;;;;11.70;99.90;;;;;;5021668;28;20386;-76
2022/12/22 14:18:40;;;;;;;;;;;11.60;99.90;;;;;;5009380;28;19949;-76
2022/12/22 14:21:06;;;;;;;;;;;11.60;99.90;;;;;;5011465;28;20045;-76
2022/12/22 14:23:35;;;;;;;;;;;11.50;99.90;;;;;;5008664;28;19995;-76
2022/12/22 14:26:05;;;;;;;;;;;11.40;99.90;;;;;;5012804;28;19933;-76
2022/12/22 14:28:33;;;;;;;;;;;11.50;99.90;;;;;;5008217;28;19925;-75
2022/12/22 14:31:02;;;;;;;;;;;11.40;99.90;;;;;;5009381;28;19934;-74
2022/12/22 14:33:30;;;;;;;;;;;11.40;99.90;;;;;;5007103;28;19933;-75
2022/12/22 14:36:12;;;;;;;;;;;11.30;99.90;;;;;;4988580;28;19933;-74
2022/12/22 14:38:40;;;;;;;;;;;11.30;99.90;;;;;;5013242;28;20726;-75
2022/12/22 14:41:40;;;;;;;;;;;11.10;99.90;;;;;;5010436;28;20291;-75
2022/12/22 14:44:01;;;;;;;;;;;11.20;99.90;;;;;;5032192;22;19933;-73
2022/12/22 14:46:27;;;;;;;;;;;10.60;99.90;;;;;;5016756;28;19958;-72
2022/12/22 14:48:54;;;;;;;;;;;11.10;99.90;;;;;;5035021;28;20035;-72
2022/12/22 14:51:21;;;;;;;;;;;11.00;99.90;;;;;;5033425;28;19940;-73
2022/12/22 14:53:49;;;;;;;;;;;11.00;99.90;;;;;;5031442;28;19939;-72
2022/12/22 14:56:17;;;;;;;;;;;12.30;99.90;;;;;;5006565;28;21060;-73
2022/12/22 14:58:45;;;;;;;;;;;11.40;99.90;;;;;;5030532;28;20057;-73
2022/12/22 15:01:16;;;;;;;;;;;10.90;99.90;;;;;;5030912;28;20298;-72
2022/12/22 15:03:45;;;;;;;;;;;10.80;99.90;;;;;;5534280;22;19912;-72
2022/12/22 15:06:22;;;;;;;;;;;10.70;99.90;;;;;;5000555;28;19956;-72
2022/12/22 15:08:51;;;;;;;;;;;10.60;99.90;;;;;;4991188;28;19961;-72
2022/12/22 15:11:20;;;;;;;;;;;10.60;99.90;;;;;;5011575;28;20212;-72
2022/12/22 15:13:48;;;;;;;;;;;10.50;99.90;;;;;;5015215;28;19929;-72
2022/12/22 15:16:15;;;;;;;;;;;10.50;99.90;;;;;;5009529;28;19956;-72
2022/12/22 15:18:46;;;;;;;;;;;10.50;99.90;;;;;;5011013;28;19929;-73
2022/12/22 15:21:14;;;;;;;;;;;10.50;99.90;;;;;;4996136;28;20416;-74
2022/12/22 15:23:40;;;;;;;;;;;10.50;99.90;;;;;;4989934;28;19952;-74
2022/12/22 15:26:07;;;;;;;;;;;10.50;99.90;;;;;;4989757;28;19934;-74
2022/12/22 15:28:36;;;;;;;;;;;10.50;99.90;;;;;;4991162;28;20354;-74
2022/12/22 15:31:04;;;;;;;;;;;12.00;99.90;;;;;;4989899;28;19929;-72
2022/12/22 15:33:31;;;;;;;;;;;10.40;99.90;;;;;;4990510;28;20302;-73
2022/12/22 15:35:57;;;;;;;;;;;10.10;99.90;;;;;;4993797;28;19940;-72
2022/12/22 15:38:25;;;;;;;;;;;10.30;99.90;;;;;;4989685;28;19933;-73
2022/12/22 15:40:52;;;;;;;;;;;10.40;99.90;;;;;;4986149;28;20755;-72
2022/12/22 15:43:19;;;;;;;;;;;10.40;99.90;;;;;;4989394;28;19940;-72
2022/12/22 15:45:47;;;;;;;;;;;10.40;99.90;;;;;;4994478;28;19936;-72
2022/12/22 15:48:23;;;;;;;;;;;10.40;99.90;;;;;;4991396;28;19929;-72
2022/12/22 15:50:50;;;;;;;;;;;10.40;99.90;;;;;;4992433;28;19934;-73
2022/12/22 15:53:18;;;;;;;;;;;9.80;99.90;;;;;;4992335;28;20559;-72
2022/12/22 15:55:46;;;;;;;;;;;10.40;99.90;;;;;;5000444;28;19991;-72
2022/12/22 15:58:15;;;;;;;;;;;10.40;99.90;;;;;;5015358;28;19936;-72
2022/12/22 16:00:41;;;;;;;;;;;10.40;99.90;;;;;;5010836;28;19937;-72
2022/12/22 16:03:11;;;;;;;;;;;10.40;99.90;;;;;;5011459;28;19933;-73
2022/12/22 16:05:38;;;;;;;;;;;10.50;99.90;;;;;;5000858;28;20466;-73
2022/12/22 16:08:06;;;;;;;;;;;10.30;99.90;;;;;;4997933;28;19941;-72
2022/12/22 16:10:34;;;;;;;;;;;10.30;99.90;;;;;;4999074;28;19933;-73
2022/12/22 16:13:02;;;;;;;;;;;10.30;99.90;;;;;;5002264;28;19934;-73
2022/12/22 16:15:30;;;;;;;;;;;10.10;99.90;;;;;;5008070;28;20004;-73
2022/12/22 16:17:57;;;;;;;;;;;10.30;99.90;;;;;;5009148;28;19929;-73
2022/12/22 16:20:26;;;;;;;;;;;10.30;99.90;;;;;;5004166;28;19929;-72
2022/12/22 16:22:53;;;;;;;;;;;10.20;99.90;;;;;;5005300;28;19930;-72
2022/12/22 16:25:22;;;;;;;;;;;10.20;99.90;;;;;;5013733;28;19929;-72
2022/12/22 16:27:49;;;;;;;;;;;9.70;99.90;;;;;;5010644;28;20446;-72
2022/12/22 16:30:18;;;;;;;;;;;10.10;99.90;;;;;;5001236;28;19934;-72
2022/12/22 16:32:45;;;;;;;;;;;10.00;99.90;;;;;;5000957;28;20379;-72
2022/12/22 16:35:16;;;;;;;;;;;10.00;99.90;;;;;;5006305;28;19968;-72
2022/12/22 16:37:44;;;;;;;;;;;9.90;99.90;;;;;;4999314;28;19941;-72
2022/12/22 16:40:11;;;;;;;;;;;9.90;99.90;;;;;;5001129;28;19933;-72
2022/12/22 16:42:39;;;;;;;;;;;9.80;99.90;;;;;;5004534;28;19929;-72
2022/12/22 16:45:13;;;;;;;;;;;9.70;99.90;;;;;;5006500;28;19944;-72
2022/12/22 16:47:40;;;;;;;;;;;9.70;99.90;;;;;;4993548;28;19930;-72
2022/12/22 16:50:14;;;;;;;;;;;9.60;99.90;;;;;;4992885;28;19934;-72
2022/12/22 16:52:41;;;;;;;;;;;9.60;99.90;;;;;;5010008;28;19933;-71
2022/12/22 16:55:13;;;;;;;;;;;9.50;99.90;;;;;;4996110;28;19951;-72
2022/12/22 16:57:40;;;;;;;;;;;9.50;99.90;;;;;;4997322;28;19930;-72
2022/12/22 17:00:07;;;;;;;;;;;9.50;99.90;;;;;;4991566;28;20322;-74
2022/12/22 17:02:34;;;;;;;;;;;9.40;99.90;;;;;;4999569;28;20367;-72
2022/12/22 17:05:02;;;;;;;;;;;9.50;99.90;;;;;;4992821;28;19925;-71
2022/12/22 17:07:31;;;;;;;;;;;9.50;99.90;;;;;;4996221;28;19930;-71
2022/12/22 17:10:00;;;;;;;;;;;9.50;99.90;;;;;;4988554;28;19941;-72
2022/12/22 17:12:29;;;;;;;;;;;9.50;99.90;;;;;;4990181;28;19934;-72
2022/12/22 17:14:57;;;;;;;;;;;9.50;99.90;;;;;;5004608;28;20421;-71
2022/12/22 17:17:23;;;;;;;;;;;9.50;99.90;;;;;;5015072;28;20305;-72
2022/12/22 17:19:51;;;;;;;;;;;9.50;99.90;;;;;;5004638;28;20195;-72
2022/12/22 17:22:20;;;;;;;;;;;9.40;99.90;;;;;;5004863;28;20305;-71
2022/12/22 17:24:47;;;;;;;;;;;9.40;99.90;;;;;;5018180;28;19936;-72
2022/12/22 17:27:14;;;;;;;;;;;9.40;99.90;;;;;;5005362;28;19925;-72
2022/12/22 17:29:42;;;;;;;;;;;9.40;99.90;;;;;;5019238;28;20363;-72
2022/12/22 17:32:12;;;;;;;;;;;9.40;99.90;;;;;;5009680;28;19929;-72
2022/12/22 17:34:39;;;;;;;;;;;9.50;99.90;;;;;;5008285;28;19929;-72
2022/12/22 17:37:09;;;;;;;;;;;9.50;99.90;;;;;;5008496;28;19929;-72
2022/12/22 17:39:37;;;;;;;;;;;9.80;99.90;;;;;;5014699;28;19933;-72
2022/12/22 17:42:12;;;;;;;;;;;9.50;99.90;;;;;;5006560;28;20382;-72
2022/12/22 17:44:39;;;;;;;;;;;9.50;99.90;;;;;;5014016;28;19929;-73
2022/12/22 17:47:07;;;;;;;;;;;9.50;99.90;;;;;;5014949;28;19937;-73
2022/12/22 17:49:33;;;;;;;;;;;9.60;99.90;;;;;;5015142;28;19940;-71
2022/12/22 17:52:00;;;;;;;;;;;9.60;99.90;;;;;;5018991;28;19925;-72
2022/12/22 17:54:27;;;;;;;;;;;9.60;99.90;;;;;;5006159;28;19951;-74
2022/12/22 17:56:57;;;;;;;;;;;9.50;99.90;;;;;;5017810;28;19935;-72
2022/12/22 17:59:23;;;;;;;;;;;9.60;99.90;;;;;;5011929;28;20299;-72
2022/12/22 18:01:50;;;;;;;;;;;9.60;99.90;;;;;;5016644;28;19929;-72
2022/12/22 18:04:18;;;;;;;;;;;9.60;99.90;;;;;;5012838;28;20314;-72
2022/12/22 18:06:45;;;;;;;;;;;9.60;99.90;;;;;;5022182;28;20268;-71
2022/12/22 18:09:15;;;;;;;;;;;9.60;99.90;;;;;;5011816;28;19933;-72
2022/12/22 18:11:42;;;;;;;;;;;9.60;99.90;;;;;;5020818;28;20012;-72
2022/12/22 18:14:12;;;;;;;;;;;9.60;99.90;;;;;;5004802;28;20217;-72
2022/12/22 18:16:38;;;;;;;;;;;9.60;99.90;;;;;;5013495;28;19925;-72